Terminal Aerodrome Forecast
Issued by NWS

Home | Current Version | Previous Version | Text Only | Print | Product List | Glossary On
Versions: 1 2 3 4 5 6 7 8 9 10 11 12 13 14 15 16 17 18 19 20 21
000
FTUS44 KLZK 221500 AAA
TAFHRO
TAF AMD
KHRO 221542Z 2216/2312 13009KT 6SM BR VCSH SCT004 BKN012 OVC025
      TEMPO 2216/2218 3SM -RA BR OVC004
     FM221800 24009G18KT P6SM VCSH BKN015 OVC025
      TEMPO 2218/2220 4SM -RA BR OVC008
     FM230000 27008G15KT P6SM SCT015 BKN025 OVC040
     FM230600 27009KT P6SM SCT025 BKN050 BKN250=

USA.gov is the U.S. government's official web portal to all federal, state and local government web resources and services.